Weather History for KHIE - December, 2012

Change the Weather History Date:

Thursday, December 27, 2012

  Actual Average Record
Temperature  
Mean Temperature 26 °F -  
Max Temperature 30 °F 27 °F 44 °F (2011)
Min Temperature 21 °F 6 °F 0 °F (2004)
Degree Days  
Heating Degree Days 38    
Moisture  
Dew Point 22 °F    
Average Humidity 84    
Maximum Humidity 93    
Minimum Humidity 64    
Precipitation  
Precipitation 0.32 in - - ()
Sea Level Pressure  
Sea Level Pressure 29.66 in    
Wind  
Wind Speed 11 mph (NE)    
Max Wind Speed 31 mph    
Max Gust Speed 45 mph    
Visibility 2 miles    
Events Fog , Snow    
Averages and records for this station are not official NWS values.
T = Trace of Precipitation, MM = Missing Value Source: NWS Daily Summary

Daily Weather History Graph

Daily Weather History Graph

Search for Another Location

Airport or City:

Trip Planner

Search our weather history database for the weather conditions in past years. The results will help you decide how hot, cold, wet, or windy it might be!

Date:

Astronomy

Dec. 27, 2012 Rise Set
Actual Time 7:21 AM EST 4:13 PM EST
Civil Twilight 6:48 AM EST 4:46 PM EST
Nautical Twilight 6:11 AM EST 5:23 PM EST
Astronomical Twilight 5:36 AM EST 5:59 PM EST
Moon 3:55 PM EST (12/27) 6:28 AM EST (12/27)
Length of Visible Light 9h 58m
Length of Day
8h 52m
Full, 100% of the Moon is Illuminated
Dec 27
Full
Dec 28
Full
Jan 4
Last Quarter
Jan 11
New
Jan 18
First Quarter

Hourly Weather History & Observations

Time (EST) Temp. Windchill Dew Point Humidity Pressure Visibility Wind Dir Wind Speed Gust Speed Precip Events Conditions
12:52 AM 26.1 °F 15.6 °F 17.1 °F 69% 29.99 in 3.0 mi ENE 11.5 mph - 0.00 in Snow Light Snow
12:55 AM 26.6 °F 17.5 °F 17.6 °F 69% 29.94 in 2.5 mi ENE 9.2 mph - 0.00 in Snow Light Snow
1:03 AM 26.6 °F 19.1 °F 15.8 °F 64% 29.93 in 5.0 mi ENE 6.9 mph - 0.00 in Snow Light Snow
1:27 AM 26.6 °F 22.6 °F 17.6 °F 69% 29.93 in 4.0 mi ESE 3.5 mph - 0.00 in Snow Light Snow
1:52 AM 25.0 °F 16.3 °F 18.0 °F 75% 29.97 in 4.0 mi ENE 8.1 mph - 0.00 in Snow Light Snow
2:09 AM 24.8 °F 16.1 °F 19.4 °F 80% 29.91 in 2.5 mi NE 8.1 mph - 0.00 in Snow Light Snow
2:17 AM 26.6 °F 16.2 °F 19.4 °F 74% 29.89 in 2.0 mi ENE 11.5 mph - 0.00 in Snow Light Snow
2:33 AM 24.8 °F 14.0 °F 19.4 °F 80% 29.89 in 1.5 mi ENE 11.5 mph 19.6 mph 0.00 in Snow Light Snow
2:52 AM 24.1 °F 11.5 °F 18.0 °F 77% 29.92 in 2.0 mi NE 15.0 mph - 0.00 in Snow Light Snow
3:28 AM 24.8 °F 16.9 °F 19.4 °F 80% 29.82 in 2.5 mi NE 6.9 mph - 0.00 in Snow Light Snow
3:37 AM 24.8 °F 16.1 °F 19.4 °F 80% 29.82 in 3.0 mi NE 8.1 mph - 0.00 in Snow Light Snow
3:52 AM 25.0 °F 11.3 °F 19.9 °F 81% 29.85 in 1.5 mi NE 18.4 mph 23.0 mph 0.01 in Snow Light Snow
4:02 AM 24.8 °F 11.9 °F 19.4 °F 80% 29.79 in 1.0 mi NE 16.1 mph 21.9 mph 0.00 in Snow Light Snow
4:10 AM 24.8 °F 11.5 °F 19.4 °F 80% 29.79 in 1.0 mi ENE 17.3 mph 31.1 mph 0.00 in Snow Light Snow
4:18 AM 24.8 °F 10.7 °F 19.4 °F 80% 29.78 in 1.2 mi NE 19.6 mph 25.3 mph 0.00 in Snow Light Snow
4:27 AM 24.8 °F 11.5 °F 19.4 °F 80% 29.77 in 1.0 mi NE 17.3 mph 26.5 mph 0.00 in Snow Light Snow
4:52 AM 25.0 °F 14.2 °F 19.9 °F 81% 29.82 in 1.5 mi NE 11.5 mph 21.9 mph 0.00 in Snow Light Snow
5:05 AM 24.8 °F 12.9 °F 21.2 °F 86% 29.75 in 2.5 mi NNE 13.8 mph 19.6 mph 0.00 in Snow Light Snow
5:22 AM 26.6 °F 16.2 °F 21.2 °F 80% 29.73 in 4.0 mi ENE 11.5 mph 23.0 mph 0.00 in Snow Light Snow
5:34 AM 26.6 °F 17.5 °F 21.2 °F 80% 29.73 in 2.0 mi NE 9.2 mph 21.9 mph 0.00 in Snow Light Snow
5:47 AM 26.6 °F 15.2 °F 21.2 °F 80% 29.72 in 1.0 mi NNE 13.8 mph 25.3 mph 0.01 in Snow Light Snow
5:52 AM 26.1 °F 14.5 °F 21.0 °F 81% 29.78 in 1.0 mi NE 13.8 mph 19.6 mph 0.01 in Snow Light Snow
6:15 AM 26.6 °F 14.7 °F 21.2 °F 80% 29.71 in 0.8 mi ENE 15.0 mph 24.2 mph 0.00 in Snow Light Snow
6:36 AM 26.6 °F 16.2 °F 21.2 °F 80% 29.69 in 0.8 mi NE 11.5 mph 20.7 mph 0.01 in Snow Light Snow
6:52 AM 26.1 °F 14.5 °F 21.9 °F 84% 29.71 in 0.8 mi NE 13.8 mph 25.3 mph 0.02 in Snow Light Snow
6:57 AM 26.6 °F 18.2 °F 23.0 °F 86% 29.66 in 1.0 mi NNE 8.1 mph 25.3 mph 0.00 in Snow Light Snow
7:13 AM 26.6 °F 17.5 °F 23.0 °F 86% 29.62 in 0.8 mi NNE 9.2 mph 18.4 mph 0.00 in Snow Light Snow
7:21 AM 26.6 °F 15.2 °F 23.0 °F 86% 29.62 in 0.8 mi NE 13.8 mph 25.3 mph 0.01 in Snow Light Snow
7:28 AM 26.6 °F 19.1 °F 23.0 °F 86% 29.65 in 0.8 mi Variable 6.9 mph 25.3 mph 0.01 in Snow Light Snow
7:37 AM 26.6 °F 19.1 °F 23.0 °F 86% 29.66 in 1.0 mi Variable 6.9 mph - 0.01 in Snow Light Snow
7:44 AM 28.4 °F 16.2 °F 24.8 °F 86% 29.65 in 1.2 mi East 17.3 mph 28.8 mph 0.01 in Snow Light Snow
7:52 AM 28.0 °F 16.5 °F 23.0 °F 81% 29.69 in 1.2 mi East 15.0 mph 28.8 mph 0.01 in Snow Light Snow
7:55 AM 28.4 °F 17.0 °F 23.0 °F 80% 29.64 in 0.8 mi East 15.0 mph 25.3 mph 0.00 in Snow Light Snow
8:16 AM 28.4 °F 14.1 °F 24.8 °F 86% 29.61 in 0.2 mi East 24.2 mph 34.5 mph 0.01 in Fog , Snow Snow
8:52 AM 28.9 °F 13.2 °F 25.0 °F 85% 29.65 in 0.2 mi East 31.1 mph 44.9 mph 0.03 in Fog , Snow Snow
9:04 AM 28.4 °F 12.5 °F 24.8 °F 86% 29.61 in 0.2 mi ENE 31.1 mph 42.6 mph 0.00 in Fog , Snow Snow
9:52 AM 28.9 °F 15.8 °F 26.1 °F 89% 29.65 in 0.2 mi East 20.7 mph 41.4 mph 0.03 in Fog , Snow Snow
10:23 AM 28.4 °F 16.6 °F 24.8 °F 86% 29.60 in 0.2 mi ENE 16.1 mph 29.9 mph 0.01 in Fog , Snow Heavy Snow
10:52 AM 28.9 °F 16.1 °F 25.0 °F 85% 29.62 in 0.2 mi East 19.6 mph 33.4 mph 0.03 in Fog , Snow Snow
11:20 AM 28.4 °F 14.1 °F 26.6 °F 93% 29.55 in 0.2 mi ENE 24.2 mph 32.2 mph 0.01 in Fog , Snow Snow
11:47 AM 28.4 °F 13.5 °F 26.6 °F 93% 29.53 in 0.2 mi ENE 26.5 mph 38.0 mph 0.02 in Fog , Snow Snow
11:52 AM 28.9 °F 15.4 °F 26.1 °F 89% 29.57 in 0.2 mi East 21.9 mph 39.1 mph 0.02 in Fog , Snow Heavy Snow
12:07 PM 28.4 °F 14.4 °F 26.6 °F 93% 29.51 in 0.2 mi ENE 23.0 mph 36.8 mph 0.01 in Fog , Snow Heavy Snow
12:20 PM 28.4 °F 17.0 °F 26.6 °F 93% 29.52 in 0.2 mi East 15.0 mph 25.3 mph 0.01 in Fog , Snow Snow
12:37 PM 28.4 °F 15.4 °F 24.8 °F 86% 29.50 in 0.8 mi ENE 19.6 mph 26.5 mph 0.02 in Snow Light Snow
12:49 PM 28.4 °F 15.8 °F 24.8 °F 86% 29.51 in 1.2 mi ENE 18.4 mph 26.5 mph 0.02 in Snow Light Snow
12:52 PM 28.9 °F 17.3 °F 25.0 °F 85% 29.55 in 1.2 mi ENE 16.1 mph 26.5 mph 0.02 in Snow Light Snow
1:12 PM 28.4 °F 19.1 °F 24.8 °F 86% 29.50 in 1.0 mi ENE 10.4 mph 23.0 mph 0.00 in Snow Light Snow
1:33 PM 30.2 °F 22.6 °F 24.8 °F 80% 29.50 in 0.8 mi ENE 8.1 mph 18.4 mph 0.00 in Snow Light Snow
1:52 PM 28.9 °F 21.9 °F 25.0 °F 85% 29.55 in 0.8 mi Variable 6.9 mph - 0.00 in Snow Light Snow
2:38 PM 28.4 °F 20.4 °F 24.8 °F 86% 29.52 in 0.2 mi ENE 8.1 mph - 0.02 in Fog , Snow Snow
2:52 PM 28.9 °F 21.9 °F 26.1 °F 89% 29.57 in 0.5 mi ENE 6.9 mph - 0.03 in Fog , Snow Snow
3:52 PM 28.9 °F 23.9 °F 26.1 °F 89% 29.58 in 0.5 mi ENE 4.6 mph - 0.06 in Fog , Snow Snow
4:23 PM 28.4 °F 22.2 °F 26.6 °F 93% 29.53 in 1.0 mi ENE 5.8 mph - 0.02 in Snow Light Snow
4:28 PM 28.4 °F 22.2 °F 24.8 °F 86% 29.53 in 1.2 mi NE 5.8 mph - 0.03 in Snow Light Snow
4:35 PM 28.4 °F 23.3 °F 26.6 °F 93% 29.53 in 1.2 mi NE 4.6 mph - 0.03 in Snow Light Snow
4:47 PM 28.4 °F 21.2 °F 24.8 °F 86% 29.53 in 1.5 mi NNE 6.9 mph - 0.03 in Snow Light Snow
4:52 PM 28.0 °F 21.7 °F 25.0 °F 88% 29.58 in 1.8 mi NE 5.8 mph - 0.03 in Snow Light Snow
5:01 PM 28.4 °F 23.3 °F 24.8 °F 86% 29.54 in 2.0 mi NE 4.6 mph - 0.00 in Snow Light Snow
5:33 PM 28.4 °F 21.2 °F 24.8 °F 86% 29.54 in 4.0 mi NE 6.9 mph - 0.01 in Snow Light Snow
5:52 PM 28.0 °F 22.8 °F 25.0 °F 88% 29.60 in 5.0 mi ENE 4.6 mph - 0.01 in Snow Light Snow
6:10 PM 28.4 °F 23.3 °F 24.8 °F 86% 29.55 in 5.0 mi ENE 4.6 mph - 0.00 in Snow Light Snow
6:36 PM 26.6 °F 21.2 °F 24.8 °F 93% 29.56 in 3.0 mi North 4.6 mph - 0.00 in Snow Light Snow
6:44 PM 26.6 °F 20.0 °F 23.0 °F 86% 29.56 in 2.0 mi Variable 5.8 mph - 0.00 in Snow Light Snow
6:52 PM 27.0 °F 23.0 °F 23.0 °F 85% 29.61 in 1.5 mi ENE 3.5 mph - 0.00 in Snow Light Snow
7:06 PM 26.6 °F 22.6 °F 23.0 °F 86% 29.57 in 2.5 mi Variable 3.5 mph - 0.00 in Snow Light Snow
7:13 PM 26.6 °F 22.6 °F 23.0 °F 86% 29.57 in 3.0 mi NE 3.5 mph - 0.00 in Snow Light Snow
7:52 PM 25.0 °F 19.3 °F 21.9 °F 88% 29.63 in 1.5 mi NE 4.6 mph - 0.01 in Snow Light Snow
8:06 PM 24.8 °F - 21.2 °F 86% 29.59 in 2.5 mi Calm Calm - 0.00 in Snow Light Snow
8:17 PM 26.6 °F - 21.2 °F 80% 29.60 in 4.0 mi Calm Calm - 0.00 in Snow Light Snow
8:40 PM 24.8 °F - 21.2 °F 86% 29.60 in 3.0 mi Calm Calm - 0.00 in Snow Light Snow
8:52 PM 25.0 °F - 21.0 °F 85% 29.65 in 5.0 mi Calm Calm - 0.00 in Snow Light Snow
9:34 PM 24.8 °F 16.9 °F 19.4 °F 80% 29.61 in 10.0 mi NNE 6.9 mph - 0.00 in   Overcast
9:52 PM 24.1 °F 19.7 °F 19.0 °F 81% 29.67 in 10.0 mi North 3.5 mph - 0.00 in   Overcast
10:04 PM 24.8 °F 19.1 °F 19.4 °F 80% 29.62 in 10.0 mi Variable 4.6 mph - N/A   Overcast
10:40 PM 23.0 °F 18.4 °F 19.4 °F 86% 29.63 in 10.0 mi NNE 3.5 mph - N/A   Overcast
10:52 PM 23.0 °F - 18.0 °F 81% 29.69 in 10.0 mi Calm Calm - N/A   Overcast
11:52 PM 21.9 °F 14.5 °F 16.0 °F 78% 29.70 in 10.0 mi NNW 5.8 mph - N/A   Overcast